Accueil
METAR-TAF:

METAR-TAF

Aéroports :

Téhéran, Iran

Aéroport international Mehrabad

latitude: 35-41N, longitude: 051-21E, altitude: 1204 m

Observation

Le bulletin a été fait il y a 26 minutes, à 12:30 UTC
Vent calme
Température 18°C
Humidité 18%
Pression 1024 hPa
Visibilité 10 km ou plus
pas de nuages en-dessous de 1500 mètres et pas de cumulonimbus.

METAR: OIII 181230Z 00000KT CAVOK 18/M07 Q1024 A3025 NOSIG

Heure: 16:26 (12:56 UTC)

Prévision

Le bulletin a été fait il y a 1 heure et 16 minutes, à 11:40 UTC
Prévision valable du 18 à 12 UTC au 19 à 18 UTC
Vent 6 kt de est/sud-est
Visibilité: 8000 m
Ciel clair
Evoluant progressivement
du 19 à 01 UTC au 19 à 03 UTC
Visibilité: 4000 m
brume sèche
Evoluant progressivement
du 19 à 07 UTC au 19 à 09 UTC
Visibilité: 7000 m

TAF: OIII 181140Z 1812/1918 12003MPS 8000 SKC BECMG 1901/1903 4000 HZ BECMG 1907/1909 7000

Observations et prévisions météorologiques de plus de 4000 aéroports (messages METAR et TAF).

Les stations disponibles sont représentées par des disques jaunes et rouges sur la carte.

Passer la souris dessus pour voir le nom de la station.

Cliquer dessus pour voir les observations et prévisions météorologiques.

Pour changer de carte: cliquez sur les boutons verts avec une croix noire pour zoomer, sur le bouton vert avec un tiret pour effectuer un zoom arrière, ou sur les flèches vertes pour les cartes adjacentes.


METAR-TAF: